Time;durP1;ratioP1;P1;durP2;ratioP2;P2;SDS_P1;SDS_P2;PMS_P1;PMS_P2;Temp;Humidity;BMP_temperature;BMP_pressure;BME280_temperature;BME280_humidity;BME280_pressure;Samples;Min_cycle;Max_cycle;Signal;HPM_P1;HPM_P2
2023/03/19 00:11:11;;;;;;;7.67;5.67;;;9.70;1.00;;;;;;5996670;23;20622;-82
2023/03/19 00:14:40;;;;;;;6.47;5.30;;;9.60;99.90;;;;;;5832813;24;20191;-81
2023/03/19 00:38:54;;;;;;;6.90;4.20;;;9.60;1.00;;;;;;5888602;24;20226;-81
2023/03/19 00:56:43;;;;;;;4.20;3.80;;;9.70;1.00;;;;;;5891948;24;20190;-80
2023/03/19 01:17:42;;;;;;;4.87;3.87;;;9.50;1.00;;;;;;5723765;25;20196;-80
2023/03/19 01:31:37;;;;;;;5.20;4.60;;;9.30;91.60;;;;;;5686083;25;20197;-82
2023/03/19 02:20:22;;;;;;;6.47;5.87;;;8.60;1.00;;;;;;6027501;23;20535;-81
2023/03/19 02:23:46;;;;;;;6.27;5.67;;;8.60;1.00;;;;;;5916549;24;20166;-81
2023/03/19 02:31:19;;;;;;;6.13;5.63;;;8.50;1.00;;;;;;5887971;24;20180;-80
2023/03/19 02:34:41;;;;;;;6.07;5.57;;;8.50;1.00;;;;;;5889862;24;20181;-81
2023/03/19 02:44:53;;;;;;;7.10;6.50;;;8.40;1.00;;;;;;5834751;24;20252;-80
2023/03/19 02:48:06;;;;;;;8.20;7.27;;;8.40;1.00;;;;;;5780482;24;20282;-80
2023/03/19 04:03:55;;;;;;;7.37;6.70;;;7.50;99.90;;;;;;5781513;24;20255;-80
2023/03/19 04:14:13;;;;;;;6.97;6.27;;;7.60;99.90;;;;;;5694342;25;20228;-80
2023/03/19 04:34:31;;;;;;;6.97;6.30;;;7.40;99.90;;;;;;5729076;25;20376;-80
2023/03/19 04:41:10;;;;;;;8.57;7.70;;;7.30;91.10;;;;;;5683298;25;20203;-80
2023/03/19 04:54:58;;;;;;;9.30;8.30;;;7.50;99.90;;;;;;5842932;24;20423;-81
2023/03/19 04:58:22;;;;;;;11.23;9.43;;;7.50;99.90;;;;;;6002597;23;20571;-81
2023/03/19 05:15:35;;;;;;;8.90;8.00;;;7.70;99.90;;;;;;5999089;23;20188;-82
2023/03/19 05:25:51;;;;;;;9.83;8.97;;;7.70;99.90;;;;;;5996864;23;20463;-81
2023/03/19 05:33:10;;;;;;;9.70;8.70;;;7.70;99.90;;;;;;5973733;23;20162;-82
2023/03/19 05:40:12;;;;;;;8.60;7.90;;;7.80;99.90;;;;;;5960041;23;20255;-81
2023/03/19 06:21:06;;;;;;;6.63;6.13;;;8.10;99.90;;;;;;5810637;24;20680;-81
2023/03/19 06:38:01;;;;;;;6.13;5.57;;;9.00;41.00;;;;;;5934620;24;20172;-81
2023/03/19 06:44:52;;;;;;;5.97;5.40;;;9.20;1.00;;;;;;5946518;24;20187;-81
2023/03/19 06:48:25;;;;;;;7.73;6.10;;;9.40;1.00;;;;;;5889932;24;20225;-81
2023/03/19 06:58:53;;;;;;;5.50;4.73;;;10.00;1.00;;;;;;5786485;24;20288;-81
2023/03/19 07:05:59;;;;;;;7.27;4.57;;;10.20;99.90;;;;;;5906964;24;20199;-81
2023/03/19 08:11:03;;;;;;;6.07;5.57;;;10.70;99.90;;;;;;6245385;23;20177;-82
2023/03/19 08:20:34;;;;;;;6.50;5.90;;;10.60;1.00;;;;;;6243969;23;20204;-83
2023/03/19 08:23:00;;;;;;;6.40;5.78;;;10.70;41.70;;;;;;6239302;23;20162;-82
2023/03/19 08:25:26;;;;;;;6.53;5.93;;;10.70;62.40;;;;;;6240036;23;20161;-82
2023/03/19 08:27:52;;;;;;;5.88;5.38;;;10.80;1.00;;;;;;6211952;23;20519;-82
2023/03/19 08:30:17;;;;;;;5.90;5.40;;;10.80;93.10;;;;;;6210948;23;20252;-82
2023/03/19 08:32:46;;;;;;;5.95;4.88;;;10.90;99.90;;;;;;6211272;23;20181;-81
2023/03/19 08:35:11;;;;;;;5.43;4.93;;;11.00;99.90;;;;;;6237677;23;20173;-81
2023/03/19 08:37:37;;;;;;;5.78;3.70;;;11.00;1.00;;;;;;6211112;23;20491;-82
2023/03/19 08:40:03;;;;;;;3.58;2.97;;;10.90;1.00;;;;;;6210653;23;20530;-82
2023/03/19 08:42:30;;;;;;;3.03;2.75;;;10.90;1.00;;;;;;6211180;23;20200;-82
2023/03/19 08:44:55;;;;;;;2.92;2.60;;;10.90;99.90;;;;;;6237539;23;20181;-81
2023/03/19 08:47:23;;;;;;;4.75;3.03;;;10.90;99.90;;;;;;6237309;23;20260;-82
2023/03/19 08:49:50;;;;;;;3.63;2.50;;;11.40;99.90;;;;;;6206429;23;20154;-82
2023/03/19 08:52:15;;;;;;;4.30;2.55;;;10.80;1.00;;;;;;6209746;23;20153;-82
2023/03/19 08:54:41;;;;;;;4.10;2.70;;;10.70;1.00;;;;;;6210942;23;20181;-82
2023/03/19 08:57:07;;;;;;;3.00;2.80;;;10.70;1.00;;;;;;6238952;23;20515;-82
2023/03/19 08:59:34;;;;;;;3.45;2.97;;;10.70;1.10;;;;;;6211015;23;20158;-82
2023/03/19 09:02:00;;;;;;;4.82;2.70;;;10.80;99.90;;;;;;6208880;23;20164;-82
2023/03/19 09:04:26;;;;;;;4.25;2.78;;;10.90;99.90;;;;;;6236803;23;20184;-83
2023/03/19 09:06:51;;;;;;;4.82;3.92;;;11.00;99.90;;;;;;6210434;23;20220;-81
2023/03/19 09:09:18;;;;;;;5.10;3.30;;;11.20;1.00;;;;;;6210712;23;20150;-83
2023/03/19 09:11:45;;;;;;;3.25;2.88;;;11.30;1.00;;;;;;6209790;23;20150;-81
2023/03/19 09:14:11;;;;;;;3.55;2.90;;;11.50;1.00;;;;;;6210607;23;20188;-83
2023/03/19 09:16:37;;;;;;;3.40;2.90;;;11.60;1.00;;;;;;6210221;23;20153;-82
2023/03/19 09:19:02;;;;;;;3.75;2.50;;;11.80;1.00;;;;;;6210082;23;20969;-81
2023/03/19 09:21:28;;;;;;;3.22;2.42;;;12.00;1.00;;;;;;6207625;23;20856;-86
2023/03/19 09:23:54;;;;;;;4.68;2.30;;;12.20;1.00;;;;;;6210375;23;20196;-82
2023/03/19 09:26:19;;;;;;;2.75;1.80;;;12.20;99.90;;;;;;6238237;23;20144;-82
2023/03/19 09:28:46;;;;;;;2.15;1.90;;;12.20;99.90;;;;;;6237762;23;20643;-83
2023/03/19 09:31:12;;;;;;;3.67;2.20;;;12.30;99.90;;;;;;6209722;23;20284;-83
2023/03/19 09:33:37;;;;;;;4.03;2.45;;;12.40;99.90;;;;;;6235950;23;20207;-81
2023/03/19 09:36:04;;;;;;;2.47;1.90;;;12.50;99.90;;;;;;6211293;23;20176;-87
2023/03/19 09:38:30;;;;;;;1.83;1.60;;;12.70;99.90;;;;;;6211956;23;20675;-87
2023/03/19 09:41:04;;;;;;;2.83;1.45;;;12.90;99.90;;;;;;6214005;23;20161;-87
2023/03/19 09:44:03;;;;;;;2.05;1.67;;;13.00;99.90;;;;;;6213026;23;20173;-86
2023/03/19 09:46:38;;;;;;;2.50;1.40;;;13.20;99.90;;;;;;6192790;23;20162;-86
2023/03/19 09:49:31;;;;;;;1.70;1.00;;;13.40;99.90;;;;;;6213774;23;20493;-86
2023/03/19 09:52:23;;;;;;;1.95;1.10;;;13.50;99.90;;;;;;6216063;23;20207;-84
2023/03/19 09:54:51;;;;;;;2.72;1.23;;;13.60;85.30;;;;;;6213569;23;20237;-81
2023/03/19 09:57:18;;;;;;;1.58;1.40;;;13.50;96.50;;;;;;6215623;23;20165;-82
2023/03/19 09:59:45;;;;;;;1.25;1.10;;;13.50;99.90;;;;;;6215267;23;20215;-80
2023/03/19 10:02:40;;;;;;;2.83;1.52;;;13.30;99.20;;;;;;6239207;23;20153;-81
2023/03/19 10:05:29;;;;;;;1.42;1.20;;;13.30;99.90;;;;;;6211958;23;20272;-81
2023/03/19 10:08:18;;;;;;;2.95;1.70;;;13.30;99.90;;;;;;6240619;23;20182;-81
2023/03/19 10:10:47;;;;;;;2.97;1.85;;;13.40;99.90;;;;;;6213271;23;20157;-82
2023/03/19 10:13:36;;;;;;;4.45;1.73;;;13.50;99.90;;;;;;6239940;23;20184;-80
2023/03/19 10:16:03;;;;;;;1.98;1.73;;;13.50;99.90;;;;;;6211900;23;20180;-81
2023/03/19 10:18:37;;;;;;;2.28;1.70;;;13.60;99.90;;;;;;6209994;23;20236;-81
2023/03/19 10:21:22;;;;;;;2.80;1.70;;;13.70;99.90;;;;;;6208983;23;20144;-81
2023/03/19 10:24:12;;;;;;;2.45;1.60;;;13.80;99.90;;;;;;6209322;23;20207;-81
2023/03/19 10:26:38;;;;;;;2.65;1.98;;;13.90;99.90;;;;;;6237372;23;20458;-81
2023/03/19 10:29:23;;;;;;;2.90;2.10;;;14.00;99.90;;;;;;6210279;23;20240;-81
2023/03/19 10:31:51;;;;;;;3.28;2.10;;;14.20;99.90;;;;;;6237594;23;20144;-81
2023/03/19 10:34:27;;;;;;;2.78;1.98;;;14.30;99.90;;;;;;6237416;23;20216;-81
2023/03/19 10:37:02;;;;;;;2.10;1.90;;;14.40;99.90;;;;;;6210179;23;20231;-81
2023/03/19 10:39:32;;;;;;;2.55;1.60;;;14.60;99.90;;;;;;6211932;23;20156;-81
2023/03/19 10:42:35;;;;;;;2.08;1.23;;;14.60;99.90;;;;;;6240811;23;20138;-85
2023/03/19 10:45:21;;;;;;;1.92;1.40;;;14.90;57.10;;;;;;6212077;23;20231;-84
2023/03/19 10:47:47;;;;;;;2.03;1.00;;;14.90;29.20;;;;;;6192464;23;20181;-85
2023/03/19 10:50:16;;;;;;;0.65;0.65;;;15.30;13.20;;;;;;6213996;23;20162;-84
2023/03/19 10:52:42;;;;;;;0.70;0.68;;;15.00;1.00;;;;;;6214396;23;20142;-84
2023/03/19 10:55:15;;;;;;;1.63;0.90;;;15.00;1.00;;;;;;6213624;23;20181;-85
2023/03/19 10:57:42;;;;;;;1.40;1.00;;;15.10;1.00;;;;;;6213733;23;20196;-84
2023/03/19 11:00:17;;;;;;;1.83;1.40;;;15.30;1.00;;;;;;6213702;23;20724;-84
2023/03/19 11:02:47;;;;;;;2.55;1.60;;;15.10;1.00;;;;;;6213397;23;20153;-84
2023/03/19 11:05:13;;;;;;;2.50;2.13;;;15.40;1.00;;;;;;6213645;23;20218;-85
2023/03/19 11:07:39;;;;;;;1.75;1.58;;;15.90;1.00;;;;;;6240081;23;20173;-84
2023/03/19 11:10:13;;;;;;;2.80;1.90;;;15.80;1.00;;;;;;6213579;23;20165;-86
2023/03/19 11:12:39;;;;;;;3.00;2.03;;;15.20;1.00;;;;;;6213975;23;20224;-85
2023/03/19 11:15:22;;;;;;;11.35;10.20;;;15.20;1.00;;;;;;6211159;23;20205;-89
2023/03/19 11:17:59;;;;;;;2.47;2.28;;;15.70;1.00;;;;;;6213062;23;20630;-84
2023/03/19 11:20:33;;;;;;;2.80;2.05;;;15.60;1.00;;;;;;6212930;23;20223;-88
2023/03/19 11:23:02;;;;;;;2.35;1.67;;;15.60;1.00;;;;;;6212968;23;20180;-84
2023/03/19 11:25:28;;;;;;;3.13;2.30;;;15.70;1.00;;;;;;6213051;23;20625;-83
2023/03/19 11:28:05;;;;;;;2.28;1.98;;;16.20;1.00;;;;;;6213097;23;20188;-84
2023/03/19 11:30:40;;;;;;;1.92;1.60;;;15.90;1.00;;;;;;6213128;23;20287;-84
2023/03/19 11:33:18;;;;;;;2.45;1.25;;;15.90;1.00;;;;;;6212447;23;20224;-85
2023/03/19 11:35:55;;;;;;;2.72;1.48;;;16.00;1.00;;;;;;6208569;23;20280;-87
2023/03/19 11:38:57;;;;;;;3.28;1.45;;;15.90;1.00;;;;;;6240351;23;20141;-85
2023/03/19 11:41:29;;;;;;;2.20;1.65;;;16.00;1.00;;;;;;6193871;23;20168;-86
2023/03/19 11:44:00;;;;;;;3.03;1.83;;;15.90;1.00;;;;;;6212906;23;20188;-85
2023/03/19 11:46:35;;;;;;;2.38;1.80;;;15.90;1.00;;;;;;6212319;23;20620;-84
2023/03/19 11:49:26;;;;;;;1.92;1.48;;;15.80;1.00;;;;;;6239214;23;20169;-84
2023/03/19 11:52:01;;;;;;;1.50;1.10;;;15.90;1.00;;;;;;6211885;23;20162;-84
2023/03/19 11:55:03;;;;;;;1.33;1.00;;;16.00;1.00;;;;;;6238932;23;20173;-83
2023/03/19 11:58:05;;;;;;;1.50;1.40;;;16.20;1.00;;;;;;6211828;23;20181;-85
2023/03/19 12:00:46;;;;;;;2.97;1.70;;;16.20;1.00;;;;;;6212097;23;20152;-85
2023/03/19 12:03:56;;;;;;;2.08;1.40;;;16.40;1.00;;;;;;6213639;23;20236;-85
2023/03/19 12:06:34;;;;;;;1.67;1.00;;;16.30;1.00;;;;;;6213900;23;20175;-88
2023/03/19 12:09:10;;;;;;;2.67;1.10;;;16.20;1.00;;;;;;6212333;23;20177;-87
2023/03/19 12:11:55;;;;;;;1.65;1.10;;;16.40;1.00;;;;;;6212857;23;20574;-84
2023/03/19 12:14:41;;;;;;;2.20;1.35;;;16.40;1.00;;;;;;6212539;23;20178;-83
2023/03/19 12:17:34;;;;;;;1.50;1.02;;;17.00;1.00;;;;;;6240740;23;20221;-84
2023/03/19 12:20:13;;;;;;;1.80;1.58;;;16.90;1.00;;;;;;6213390;23;20195;-85
2023/03/19 12:23:05;;;;;;;2.00;1.63;;;16.70;1.00;;;;;;6210227;23;20173;-87
2023/03/19 12:26:03;;;;;;;2.00;1.70;;;16.70;1.00;;;;;;6212046;23;20149;-84
2023/03/19 12:28:56;;;;;;;2.83;1.83;;;16.80;1.00;;;;;;6211294;23;20231;-83
2023/03/19 12:31:44;;;;;;;2.42;1.70;;;16.80;1.00;;;;;;6211690;23;20758;-88
2023/03/19 12:34:40;;;;;;;2.85;1.50;;;16.70;1.00;;;;;;6211349;23;20181;-85
2023/03/19 12:37:18;;;;;;;1.70;1.45;;;16.60;1.00;;;;;;6239725;23;20145;-83
2023/03/19 12:40:03;;;;;;;3.72;1.80;;;16.70;1.00;;;;;;6212359;23;20857;-83
2023/03/19 12:42:32;;;;;;;2.22;1.40;;;16.70;1.00;;;;;;6212952;23;20158;-85
2023/03/19 12:44:59;;;;;;;1.92;1.77;;;16.50;1.00;;;;;;6238193;23;20482;-83
2023/03/19 12:50:18;;;;;;;2.95;1.75;;;16.50;1.00;;;;;;6240070;23;20697;-84
2023/03/19 12:52:50;;;;;;;1.70;1.60;;;16.80;1.00;;;;;;6209569;23;20232;-84
2023/03/19 12:55:43;;;;;;;2.58;1.70;;;16.40;1.00;;;;;;6237784;23;20181;-82
2023/03/19 12:58:38;;;;;;;3.42;2.22;;;16.30;1.00;;;;;;6212370;23;20153;-82
2023/03/19 13:01:13;;;;;;;4.35;2.35;;;16.40;1.00;;;;;;6211251;23;20605;-81
2023/03/19 13:03:54;;;;;;;1.98;1.75;;;16.50;1.00;;;;;;6237011;23;20173;-81
2023/03/19 13:06:29;;;;;;;2.40;1.83;;;16.50;1.00;;;;;;6235880;23;20168;-82
2023/03/19 13:09:17;;;;;;;3.15;1.90;;;16.60;1.00;;;;;;6235248;23;20157;-82
2023/03/19 13:11:50;;;;;;;5.13;1.63;;;16.50;1.00;;;;;;6207411;23;20188;-82
2023/03/19 13:14:33;;;;;;;4.78;1.30;;;16.60;1.00;;;;;;6235138;23;20177;-82
2023/03/19 13:17:19;;;;;;;2.78;1.55;;;16.60;1.00;;;;;;6234765;23;20405;-81
2023/03/19 13:19:53;;;;;;;1.95;1.35;;;16.60;1.00;;;;;;6233935;23;20142;-81
2023/03/19 13:22:26;;;;;;;3.47;1.52;;;16.70;1.00;;;;;;6234634;23;20215;-81
2023/03/19 13:24:54;;;;;;;1.67;1.33;;;16.90;1.00;;;;;;6208017;23;20200;-82
2023/03/19 13:27:28;;;;;;;4.10;1.60;;;17.00;1.00;;;;;;6235463;23;20268;-82
2023/03/19 13:30:08;;;;;;;2.85;1.20;;;17.00;1.00;;;;;;6208495;23;20152;-82
2023/03/19 13:32:50;;;;;;;1.83;1.20;;;16.80;1.00;;;;;;6208569;23;20244;-82
2023/03/19 13:35:38;;;;;;;2.47;1.20;;;16.70;1.00;;;;;;6207931;23;20182;-82
2023/03/19 13:38:16;;;;;;;2.83;1.00;;;16.50;1.00;;;;;;6208508;23;20157;-83
2023/03/19 13:40:48;;;;;;;1.83;1.15;;;16.30;1.00;;;;;;6235272;23;20212;-82
2023/03/19 13:43:29;;;;;;;3.22;1.00;;;16.40;1.00;;;;;;6235061;23;20338;-82
2023/03/19 13:46:14;;;;;;;1.92;0.90;;;16.50;1.00;;;;;;6207930;23;20323;-83
2023/03/19 13:48:49;;;;;;;2.00;1.02;;;16.60;1.00;;;;;;6235989;23;20165;-82
2023/03/19 13:51:14;;;;;;;1.85;1.10;;;16.40;1.00;;;;;;6208264;23;20164;-82
2023/03/19 13:53:51;;;;;;;1.65;1.05;;;16.20;1.00;;;;;;6208397;23;20182;-81
2023/03/19 13:56:17;;;;;;;1.65;0.90;;;16.10;1.00;;;;;;6235191;23;20801;-82
2023/03/19 13:58:53;;;;;;;1.75;1.20;;;16.00;1.00;;;;;;6234296;23;20158;-82
2023/03/19 14:01:25;;;;;;;2.13;1.10;;;15.90;1.00;;;;;;6234838;23;20629;-82
2023/03/19 14:04:01;;;;;;;2.88;1.52;;;15.70;1.00;;;;;;6207812;23;20521;-82
2023/03/19 14:06:41;;;;;;;2.55;1.10;;;15.50;1.00;;;;;;6235052;23;20146;-81
2023/03/19 14:09:28;;;;;;;2.08;1.35;;;15.50;1.00;;;;;;6208160;23;20228;-82
2023/03/19 14:11:55;;;;;;;2.25;1.35;;;15.40;1.00;;;;;;6207473;23;20162;-82
2023/03/19 14:14:22;;;;;;;1.58;1.25;;;15.40;1.00;;;;;;6207336;23;20181;-82
2023/03/19 14:16:51;;;;;;;3.10;1.42;;;15.40;1.00;;;;;;6207972;23;20187;-82
2023/03/19 14:19:19;;;;;;;2.15;1.48;;;15.40;1.00;;;;;;6234458;23;20154;-82
2023/03/19 14:21:50;;;;;;;3.08;1.80;;;15.50;1.00;;;;;;6207671;23;20240;-82
2023/03/19 14:24:31;;;;;;;3.50;1.70;;;15.50;1.00;;;;;;6207175;23;20212;-81
2023/03/19 14:27:28;;;;;;;2.38;1.70;;;15.50;1.00;;;;;;6235104;23;20605;-82
2023/03/19 14:29:54;;;;;;;3.63;1.90;;;15.50;1.00;;;;;;6209203;23;20180;-82
2023/03/19 14:32:28;;;;;;;2.83;2.00;;;15.50;1.00;;;;;;6208790;23;20543;-82
2023/03/19 14:34:55;;;;;;;1.70;1.60;;;15.50;1.00;;;;;;6209171;23;20228;-82
2023/03/19 14:37:24;;;;;;;2.92;1.95;;;15.50;1.00;;;;;;6209163;23;20163;-82
2023/03/19 14:40:16;;;;;;;2.35;1.83;;;15.40;1.00;;;;;;6209412;23;20209;-82
2023/03/19 14:43:19;;;;;;;4.38;2.10;;;15.30;1.00;;;;;;6208666;23;20678;-82
2023/03/19 14:46:02;;;;;;;2.50;2.30;;;15.30;1.00;;;;;;6208994;23;20428;-82
2023/03/19 14:49:13;;;;;;;3.13;2.30;;;15.20;1.00;;;;;;6236116;23;20177;-82
2023/03/19 14:52:06;;;;;;;4.25;2.20;;;15.10;1.00;;;;;;6192825;23;20637;-81
2023/03/19 14:54:52;;;;;;;3.30;2.10;;;14.90;1.00;;;;;;6222861;23;20648;-81
2023/03/19 14:57:20;;;;;;;2.70;2.50;;;14.70;1.00;;;;;;6209273;23;20149;-82
2023/03/19 14:59:48;;;;;;;5.20;2.80;;;14.50;1.00;;;;;;6236648;23;20181;-82
2023/03/19 15:02:40;;;;;;;2.55;2.00;;;14.30;1.00;;;;;;6209640;23;20163;-81
2023/03/19 15:05:14;;;;;;;2.50;1.50;;;14.00;1.00;;;;;;6209270;23;20181;-81
2023/03/19 15:07:44;;;;;;;3.25;1.88;;;13.80;1.00;;;;;;6235928;23;20682;-81
2023/03/19 15:10:19;;;;;;;3.88;2.08;;;13.60;1.00;;;;;;6209765;23;20233;-81
2023/03/19 15:13:13;;;;;;;3.30;2.17;;;13.40;1.00;;;;;;6209926;23;20716;-81
2023/03/19 15:16:01;;;;;;;1.90;1.45;;;13.40;36.30;;;;;;6209458;23;20149;-81
2023/03/19 15:18:27;;;;;;;2.72;1.20;;;13.40;43.60;;;;;;6208801;23;20587;-81
2023/03/19 15:20:54;;;;;;;2.55;1.50;;;13.30;16.90;;;;;;6208816;23;20527;-81
2023/03/19 15:23:30;;;;;;;2.35;1.27;;;13.30;85.50;;;;;;6208618;23;20192;-81
2023/03/19 15:26:00;;;;;;;2.20;1.40;;;13.30;99.90;;;;;;6208944;23;20157;-81
2023/03/19 15:28:33;;;;;;;1.23;1.13;;;13.40;99.90;;;;;;6208435;23;20182;-81
2023/03/19 15:31:02;;;;;;;3.60;1.40;;;13.50;99.90;;;;;;6208778;23;20173;-81
2023/03/19 15:33:32;;;;;;;1.60;1.23;;;13.70;88.00;;;;;;6208807;23;20201;-81
2023/03/19 15:36:06;;;;;;;2.35;1.35;;;13.80;86.90;;;;;;6209553;23;20230;-81
2023/03/19 15:38:41;;;;;;;1.38;0.90;;;13.90;34.20;;;;;;6208564;23;20153;-81
2023/03/19 15:41:09;;;;;;;1.40;0.90;;;14.00;19.00;;;;;;6208821;23;20275;-82
2023/03/19 15:43:37;;;;;;;1.25;0.73;;;14.00;15.20;;;;;;6208403;23;20637;-82
2023/03/19 15:46:04;;;;;;;2.40;0.90;;;14.10;16.60;;;;;;6236702;23;20200;-82
2023/03/19 15:48:56;;;;;;;3.03;1.10;;;14.10;23.10;;;;;;6209119;23;20683;-82
2023/03/19 15:51:24;;;;;;;1.30;0.77;;;14.00;26.20;;;;;;6234416;23;20207;-82
2023/03/19 15:53:50;;;;;;;1.48;0.80;;;14.00;28.50;;;;;;6208493;23;20227;-82
2023/03/19 15:56:18;;;;;;;0.55;0.50;;;13.90;22.00;;;;;;6208559;23;20161;-82
2023/03/19 15:58:47;;;;;;;1.23;0.63;;;13.90;9.50;;;;;;6208618;23;20161;-82
2023/03/19 16:01:14;;;;;;;0.90;0.50;;;13.80;10.70;;;;;;6208517;23;20245;-81
2023/03/19 16:03:41;;;;;;;0.80;0.50;;;13.80;8.20;;;;;;6235358;23;20212;-81
2023/03/19 16:06:18;;;;;;;0.95;0.65;;;13.90;11.50;;;;;;6209491;23;20161;-82
2023/03/19 16:08:52;;;;;;;1.60;0.75;;;13.90;10.20;;;;;;6235974;23;20248;-82
2023/03/19 16:11:32;;;;;;;1.02;0.52;;;14.50;1.00;;;;;;6209491;23;20146;-82
2023/03/19 16:14:08;;;;;;;1.60;0.70;;;13.90;1.00;;;;;;6235566;23;20172;-82
2023/03/19 16:16:37;;;;;;;1.35;0.60;;;13.90;1.00;;;;;;6209234;23;20153;-81
2023/03/19 16:19:03;;;;;;;1.15;0.50;;;13.80;1.00;;;;;;6208053;23;20165;-81
2023/03/19 16:21:40;;;;;;;0.75;0.68;;;13.70;1.00;;;;;;6235208;23;20478;-81
2023/03/19 16:24:31;;;;;;;2.08;0.60;;;13.60;1.00;;;;;;6207705;23;20205;-82
2023/03/19 16:26:58;;;;;;;0.60;0.60;;;13.60;1.00;;;;;;6208711;23;20621;-87
2023/03/19 16:29:31;;;;;;;1.45;0.60;;;13.50;1.00;;;;;;6209443;23;20914;-85
2023/03/19 16:32:03;;;;;;;0.70;0.60;;;13.40;7.90;;;;;;6206522;23;20157;-85
2023/03/19 16:34:45;;;;;;;1.42;0.80;;;13.20;47.90;;;;;;6207253;23;20214;-86
2023/03/19 16:37:34;;;;;;;1.02;0.63;;;13.10;65.30;;;;;;6236398;23;20134;-86
2023/03/19 16:40:22;;;;;;;1.13;0.98;;;12.90;83.10;;;;;;6236692;23;20168;-85
2023/03/19 16:42:50;;;;;;;0.90;0.80;;;12.80;99.90;;;;;;6210989;23;20228;-84
2023/03/19 16:45:30;;;;;;;1.10;0.73;;;12.80;99.90;;;;;;6209118;23;20434;-86
2023/03/19 16:48:04;;;;;;;1.08;0.70;;;12.70;99.90;;;;;;6209476;23;20177;-85
2023/03/19 16:50:36;;;;;;;1.67;0.85;;;12.60;99.90;;;;;;6211437;23;20150;-83
2023/03/19 16:53:12;;;;;;;0.77;0.77;;;12.70;99.90;;;;;;6235854;23;20195;-84
2023/03/19 16:55:38;;;;;;;1.55;0.80;;;12.50;99.90;;;;;;6209894;23;20148;-81
2023/03/19 16:58:11;;;;;;;16.02;13.55;;;12.50;99.90;;;;;;6232707;23;20162;-81
2023/03/19 17:00:36;;;;;;;1.35;1.25;;;12.40;99.90;;;;;;6234434;23;20142;-80
2023/03/19 17:03:02;;;;;;;22.23;17.48;;;12.40;99.90;;;;;;6232228;23;20499;-81
2023/03/19 17:05:28;;;;;;;24.60;18.60;;;12.40;99.90;;;;;;6204812;23;20158;-81
2023/03/19 17:07:54;;;;;;;18.15;14.68;;;12.40;99.90;;;;;;6204574;23;20170;-81
2023/03/19 17:10:24;;;;;;;128.60;100.30;;;12.30;99.90;;;;;;6204882;23;20157;-82
2023/03/19 17:12:51;;;;;;;73.32;65.55;;;12.30;99.90;;;;;;6205345;23;20142;-82
2023/03/19 17:15:27;;;;;;;97.82;80.38;;;12.20;99.90;;;;;;6203926;23;20500;-81
2023/03/19 17:17:53;;;;;;;5.00;4.60;;;12.20;99.90;;;;;;6204824;23;20149;-81
2023/03/19 17:20:29;;;;;;;2.97;2.67;;;12.30;99.90;;;;;;6205097;23;20150;-80
2023/03/19 17:22:54;;;;;;;1.98;1.77;;;12.00;99.90;;;;;;6206327;23;20549;-82
2023/03/19 17:25:23;;;;;;;3.70;3.13;;;12.00;99.90;;;;;;6231996;23;20230;-82
2023/03/19 17:27:49;;;;;;;3.72;3.42;;;11.90;99.90;;;;;;6205551;23;20186;-82
2023/03/19 17:30:15;;;;;;;5.25;4.75;;;11.80;99.90;;;;;;6205471;23;20647;-80
2023/03/19 17:32:45;;;;;;;6.00;5.10;;;11.70;99.90;;;;;;6204633;23;20203;-81
2023/03/19 17:35:17;;;;;;;6.13;5.53;;;11.70;99.90;;;;;;6203499;23;20530;-81
2023/03/19 17:37:43;;;;;;;6.35;5.75;;;11.60;99.90;;;;;;6204803;23;20158;-81
2023/03/19 17:40:21;;;;;;;3.67;3.35;;;11.60;99.90;;;;;;6203401;23;20276;-81
2023/03/19 17:42:48;;;;;;;3.83;3.20;;;11.60;99.90;;;;;;6232103;23;20152;-81
2023/03/19 17:45:15;;;;;;;2.95;2.75;;;11.90;99.90;;;;;;6204954;23;20181;-81
2023/03/19 17:47:45;;;;;;;2.95;1.70;;;11.70;99.90;;;;;;6204851;23;20251;-81
2023/03/19 17:50:20;;;;;;;1.60;1.50;;;11.80;99.90;;;;;;6207219;23;20605;-81
2023/03/19 17:52:46;;;;;;;1.90;1.20;;;11.90;99.90;;;;;;6209612;23;20165;-81
2023/03/19 17:55:22;;;;;;;3.47;1.60;;;11.90;99.90;;;;;;6209195;23;20629;-80
2023/03/19 17:57:49;;;;;;;1.90;0.95;;;11.90;99.90;;;;;;6209999;23;20146;-81
2023/03/19 18:00:17;;;;;;;0.90;0.90;;;11.90;99.90;;;;;;6210010;23;20194;-82
2023/03/19 18:02:44;;;;;;;3.03;1.00;;;11.80;99.90;;;;;;6212183;23;20156;-80
2023/03/19 18:05:18;;;;;;;3.08;1.17;;;11.70;99.90;;;;;;6212711;23;20576;-82
2023/03/19 18:07:45;;;;;;;1.38;1.00;;;11.60;99.90;;;;;;6214264;23;20562;-81
2023/03/19 18:10:33;;;;;;;1.65;1.17;;;11.60;99.90;;;;;;6215038;23;20162;-81
2023/03/19 18:12:59;;;;;;;1.17;0.88;;;11.50;99.90;;;;;;6211886;23;20146;-82
2023/03/19 18:15:27;;;;;;;0.80;0.80;;;11.40;99.90;;;;;;6239392;23;20154;-80
2023/03/19 18:17:55;;;;;;;1.33;1.08;;;11.30;99.90;;;;;;6240209;23;20162;-81
2023/03/19 18:20:24;;;;;;;1.10;1.00;;;11.30;99.90;;;;;;6212754;23;20499;-80
2023/03/19 18:22:49;;;;;;;1.20;1.10;;;11.30;99.90;;;;;;6212266;23;20181;-81
2023/03/19 18:25:22;;;;;;;1.48;1.17;;;11.30;99.90;;;;;;6212235;23;20312;-81
2023/03/19 18:27:48;;;;;;;1.65;1.55;;;11.20;1.00;;;;;;6239650;23;20172;-81
2023/03/19 18:30:17;;;;;;;2.15;1.40;;;11.20;1.00;;;;;;6212168;23;20219;-81
2023/03/19 18:32:46;;;;;;;1.27;1.17;;;11.10;1.00;;;;;;6212686;23;20495;-81
2023/03/19 18:35:16;;;;;;;1.23;1.10;;;11.00;1.00;;;;;;6239089;23;20245;-82
2023/03/19 18:37:45;;;;;;;6.85;3.90;;;11.00;1.00;;;;;;6209673;23;20601;-82
2023/03/19 18:40:18;;;;;;;10.93;6.32;;;11.00;1.00;;;;;;6211925;23;20387;-81
2023/03/19 18:42:44;;;;;;;11.70;6.05;;;10.90;52.40;;;;;;6239384;23;20141;-81
2023/03/19 18:45:13;;;;;;;13.88;7.82;;;10.90;93.60;;;;;;6212129;23;20181;-82
2023/03/19 18:47:41;;;;;;;4.45;3.25;;;10.80;99.90;;;;;;6211355;23;20243;-81
2023/03/19 18:50:12;;;;;;;4.90;3.27;;;10.80;99.90;;;;;;6212215;23;20219;-80
2023/03/19 18:52:38;;;;;;;15.15;8.80;;;10.80;1.00;;;;;;6210943;23;20188;-81
2023/03/19 18:55:04;;;;;;;6.32;3.78;;;10.80;1.00;;;;;;6212216;23;20618;-81
2023/03/19 18:57:29;;;;;;;6.60;4.50;;;10.70;99.90;;;;;;6211478;23;20157;-80
2023/03/19 18:59:55;;;;;;;9.13;5.80;;;10.70;1.00;;;;;;6212476;23;20158;-80
2023/03/19 19:02:31;;;;;;;7.05;4.18;;;10.70;1.00;;;;;;6211809;23;20162;-80
2023/03/19 19:04:57;;;;;;;13.13;7.68;;;10.70;1.00;;;;;;6211633;23;20953;-80
2023/03/19 19:07:22;;;;;;;14.70;9.40;;;10.70;1.00;;;;;;6210270;23;20169;-81
2023/03/19 19:09:48;;;;;;;12.00;8.25;;;10.70;1.00;;;;;;6212201;23;20222;-81
2023/03/19 19:12:15;;;;;;;11.57;8.50;;;10.70;1.00;;;;;;6211032;23;20161;-80
2023/03/19 19:14:42;;;;;;;10.02;7.35;;;10.70;57.20;;;;;;6238279;23;20180;-81
2023/03/19 19:17:17;;;;;;;9.13;6.88;;;10.70;1.00;;;;;;6238986;23;20169;-82
2023/03/19 19:19:43;;;;;;;7.82;5.70;;;10.70;1.00;;;;;;6211698;23;20161;-81
2023/03/19 19:22:18;;;;;;;7.95;4.88;;;10.80;99.90;;;;;;6211636;23;20177;-81
2023/03/19 19:24:44;;;;;;;4.20;3.80;;;10.80;99.90;;;;;;6211524;23;20197;-81
2023/03/19 19:27:18;;;;;;;5.30;4.47;;;10.80;99.90;;;;;;6238595;23;20681;-81
2023/03/19 19:29:45;;;;;;;5.22;4.72;;;10.70;1.00;;;;;;6211688;23;20658;-81
2023/03/19 19:32:31;;;;;;;5.68;4.90;;;10.60;99.90;;;;;;6211170;23;20192;-80
2023/03/19 19:34:57;;;;;;;6.30;4.90;;;10.60;1.00;;;;;;6210934;23;20201;-81
2023/03/19 19:37:23;;;;;;;6.63;4.68;;;10.60;1.00;;;;;;6208506;23;20475;-81
2023/03/19 19:39:49;;;;;;;5.05;4.47;;;10.50;1.00;;;;;;6236661;23;20177;-80
2023/03/19 19:42:17;;;;;;;6.78;5.15;;;10.60;99.90;;;;;;6210932;23;20157;-80
2023/03/19 19:44:48;;;;;;;5.40;4.20;;;10.60;1.00;;;;;;6211623;23;20181;-81
2023/03/19 19:47:15;;;;;;;5.97;4.33;;;10.60;1.00;;;;;;6211456;23;20157;-81
2023/03/19 19:49:42;;;;;;;7.57;5.10;;;10.60;1.00;;;;;;6211582;23;20164;-81
2023/03/19 19:52:16;;;;;;;6.20;5.18;;;10.50;1.00;;;;;;6212697;23;20226;-79
2023/03/19 19:54:42;;;;;;;6.47;4.60;;;10.40;1.00;;;;;;6239642;23;20221;-81
2023/03/19 19:57:21;;;;;;;5.75;4.45;;;10.40;1.00;;;;;;6211364;23;20158;-81
2023/03/19 19:59:47;;;;;;;6.20;5.60;;;10.30;1.00;;;;;;6238517;23;20177;-80
2023/03/19 20:02:24;;;;;;;7.23;6.50;;;10.30;1.00;;;;;;6212076;23;20545;-81
2023/03/19 20:04:49;;;;;;;7.07;6.27;;;10.30;99.90;;;;;;6211301;23;20216;-81
2023/03/19 20:07:15;;;;;;;7.88;7.07;;;10.20;1.00;;;;;;6211529;23;20677;-80
2023/03/19 20:09:41;;;;;;;7.17;5.77;;;10.20;44.00;;;;;;6211164;23;20192;-80
2023/03/19 20:12:39;;;;;;;6.55;5.72;;;10.20;99.90;;;;;;6238507;23;20153;-80
2023/03/19 20:15:14;;;;;;;6.65;5.97;;;10.20;1.00;;;;;;6171510;23;20295;-80
2023/03/19 20:17:40;;;;;;;6.93;6.20;;;10.10;1.00;;;;;;6238674;23;20141;-81
2023/03/19 20:20:17;;;;;;;8.10;7.30;;;10.10;79.80;;;;;;6238814;23;20606;-82
2023/03/19 20:22:43;;;;;;;8.18;7.38;;;10.10;1.00;;;;;;6238526;23;20176;-80
2023/03/19 20:25:09;;;;;;;7.90;7.20;;;10.10;99.90;;;;;;6207768;23;20178;-81
2023/03/19 20:27:35;;;;;;;9.65;8.57;;;10.10;99.90;;;;;;6209874;23;20870;-80
2023/03/19 20:30:03;;;;;;;9.68;8.77;;;10.10;1.00;;;;;;6209016;23;20168;-80
2023/03/19 20:32:34;;;;;;;10.53;9.43;;;10.20;1.00;;;;;;6208897;23;20158;-80
2023/03/19 20:35:00;;;;;;;9.32;8.43;;;10.10;1.00;;;;;;6209525;23;20205;-79